sensor_id;sensor_type;location;lat;lon;timestamp;pressure;altitude;pressure_sealevel;temperature;humidity
47883;BME280;37739;50.350;7.578;2022-09-17T00:00:37;99403.75;;;11.25;68.99
47883;BME280;37739;50.350;7.578;2022-09-17T00:03:04;99403.81;;;11.28;68.92
47883;BME280;37739;50.350;7.578;2022-09-17T00:05:30;99401.31;;;11.29;68.84
47883;BME280;37739;50.350;7.578;2022-09-17T00:07:55;99402.97;;;11.27;69.15
47883;BME280;37739;50.350;7.578;2022-09-17T00:10:21;99408.13;;;11.29;68.94
47883;BME280;37739;50.350;7.578;2022-09-17T00:12:51;99411.53;;;11.28;69.12
47883;BME280;37739;50.350;7.578;2022-09-17T00:15:17;99412.41;;;11.28;69.17
47883;BME280;37739;50.350;7.578;2022-09-17T00:17:45;99408.13;;;11.29;69.42
47883;BME280;37739;50.350;7.578;2022-09-17T00:20:10;99403.06;;;11.30;69.03
47883;BME280;37739;50.350;7.578;2022-09-17T00:22:37;99403.81;;;11.28;69.34
47883;BME280;37739;50.350;7.578;2022-09-17T00:25:04;99408.13;;;11.29;69.21
47883;BME280;37739;50.350;7.578;2022-09-17T00:27:30;99399.63;;;11.30;69.29
47883;BME280;37739;50.350;7.578;2022-09-17T00:29:58;99406.59;;;11.34;69.17
47883;BME280;37739;50.350;7.578;2022-09-17T00:32:23;99404.81;;;11.33;69.03
47883;BME280;37739;50.350;7.578;2022-09-17T00:34:49;99407.34;;;11.31;69.17
47883;BME280;37739;50.350;7.578;2022-09-17T00:37:17;99414.13;;;11.29;69.41
47883;BME280;37739;50.350;7.578;2022-09-17T00:39:42;99415.84;;;11.29;69.33
47883;BME280;37739;50.350;7.578;2022-09-17T00:42:15;99411.56;;;11.29;69.48
47883;BME280;37739;50.350;7.578;2022-09-17T00:47:34;99408.19;;;11.30;69.53
47883;BME280;37739;50.350;7.578;2022-09-17T00:50:07;99401.31;;;11.29;69.25
47883;BME280;37739;50.350;7.578;2022-09-17T00:52:40;99406.44;;;11.29;69.37
47883;BME280;37739;50.350;7.578;2022-09-17T00:55:18;99405.47;;;11.26;69.38
47883;BME280;37739;50.350;7.578;2022-09-17T00:57:44;99410.66;;;11.27;69.19
47883;BME280;37739;50.350;7.578;2022-09-17T01:00:12;99404.72;;;11.28;69.22
47883;BME280;37739;50.350;7.578;2022-09-17T01:02:38;99410.75;;;11.30;69.39
47883;BME280;37739;50.350;7.578;2022-09-17T01:05:06;99410.66;;;11.27;69.10
47883;BME280;37739;50.350;7.578;2022-09-17T01:07:56;99411.53;;;11.28;69.73
47883;BME280;37739;50.350;7.578;2022-09-17T01:15:36;99419.91;;;11.20;70.25
47883;BME280;37739;50.350;7.578;2022-09-17T01:18:14;99408.94;;;11.26;69.68
47883;BME280;37739;50.350;7.578;2022-09-17T01:27:04;99425.03;;;11.20;70.54
47883;BME280;37739;50.350;7.578;2022-09-17T01:29:58;99425.78;;;11.16;70.61
47883;BME280;37739;50.350;7.578;2022-09-17T01:32:43;99416.31;;;11.15;70.22
47883;BME280;37739;50.350;7.578;2022-09-17T01:38:23;99421.72;;;11.25;70.51
47883;BME280;37739;50.350;7.578;2022-09-17T01:40:54;99418.25;;;11.23;70.12
47883;BME280;37739;50.350;7.578;2022-09-17T01:43:29;99430.19;;;11.20;70.18
47883;BME280;37739;50.350;7.578;2022-09-17T01:46:05;99422.47;;;11.20;70.55
47883;BME280;37739;50.350;7.578;2022-09-17T01:48:35;99424.16;;;11.20;70.45
47883;BME280;37739;50.350;7.578;2022-09-17T01:51:05;99423.91;;;11.11;70.78
47883;BME280;37739;50.350;7.578;2022-09-17T01:53:40;99428.13;;;11.09;70.89
47883;BME280;37739;50.350;7.578;2022-09-17T01:56:09;99434.75;;;11.02;71.21
47883;BME280;37739;50.350;7.578;2022-09-17T01:58:43;99431.41;;;11.05;70.95
47883;BME280;37739;50.350;7.578;2022-09-17T02:01:16;99432.34;;;11.07;71.00
47883;BME280;37739;50.350;7.578;2022-09-17T02:03:48;99429.06;;;11.12;70.96
47883;BME280;37739;50.350;7.578;2022-09-17T02:06:19;99424.88;;;11.16;70.67
47883;BME280;37739;50.350;7.578;2022-09-17T02:08:58;99435.13;;;11.14;70.72
47883;BME280;37739;50.350;7.578;2022-09-17T02:11:28;99428.19;;;11.12;70.62
47883;BME280;37739;50.350;7.578;2022-09-17T02:14:14;99428.19;;;11.12;71.42
47883;BME280;37739;50.350;7.578;2022-09-17T02:16:48;99435.13;;;11.14;71.04
47883;BME280;37739;50.350;7.578;2022-09-17T02:30:15;99424.88;;;11.16;72.03
47883;BME280;37739;50.350;7.578;2022-09-17T02:32:43;99426.47;;;11.11;71.87
47883;BME280;37739;50.350;7.578;2022-09-17T02:35:09;99426.47;;;11.11;72.33
47883;BME280;37739;50.350;7.578;2022-09-17T02:37:42;99418.78;;;11.12;72.64
47883;BME280;37739;50.350;7.578;2022-09-17T02:40:12;99419.69;;;11.13;72.98
47883;BME280;37739;50.350;7.578;2022-09-17T02:50:53;99424.03;;;11.15;73.41
47883;BME280;37739;50.350;7.578;2022-09-17T02:56:09;99422.09;;;11.07;73.08
47883;BME280;37739;50.350;7.578;2022-09-17T02:59:02;99416.09;;;11.08;73.38
47883;BME280;37739;50.350;7.578;2022-09-17T03:02:16;99425.59;;;11.10;73.43
47883;BME280;37739;50.350;7.578;2022-09-17T03:04:46;99422.16;;;11.10;72.77
47883;BME280;37739;50.350;7.578;2022-09-17T03:07:13;99424.78;;;11.11;72.76
47883;BME280;37739;50.350;7.578;2022-09-17T03:09:40;99420.53;;;11.13;72.80
47883;BME280;37739;50.350;7.578;2022-09-17T03:12:09;99424.88;;;11.14;72.50
47883;BME280;37739;50.350;7.578;2022-09-17T03:14:34;99430.91;;;11.16;72.61
47883;BME280;37739;50.350;7.578;2022-09-17T03:17:04;99431.84;;;11.18;72.50
47883;BME280;37739;50.350;7.578;2022-09-17T03:19:33;99434.50;;;11.23;72.46
47883;BME280;37739;50.350;7.578;2022-09-17T03:22:00;99428.50;;;11.23;72.56
47883;BME280;37739;50.350;7.578;2022-09-17T03:24:26;99431.84;;;11.20;73.01
47883;BME280;37739;50.350;7.578;2022-09-17T03:26:53;99429.28;;;11.20;72.75
47883;BME280;37739;50.350;7.578;2022-09-17T03:29:21;99428.31;;;11.15;73.17
47883;BME280;37739;50.350;7.578;2022-09-17T03:31:48;99426.69;;;11.18;72.85
47883;BME280;37739;50.350;7.578;2022-09-17T03:34:14;99431.91;;;11.22;72.70
47883;BME280;37739;50.350;7.578;2022-09-17T03:36:39;99425.09;;;11.22;72.99
47883;BME280;37739;50.350;7.578;2022-09-17T03:39:07;99426.75;;;11.22;73.05
47883;BME280;37739;50.350;7.578;2022-09-17T03:41:32;99427.75;;;10.96;74.64
47883;BME280;37739;50.350;7.578;2022-09-17T03:43:57;99437.63;;;10.83;75.83
47883;BME280;37739;50.350;7.578;2022-09-17T03:46:25;99437.50;;;10.78;76.05
47883;BME280;37739;50.350;7.578;2022-09-17T03:48:50;99445.94;;;10.75;76.99
47883;BME280;37739;50.350;7.578;2022-09-17T03:51:16;99450.22;;;10.75;77.04
47883;BME280;37739;50.350;7.578;2022-09-17T03:53:41;99447.22;;;10.61;77.89
47883;BME280;37739;50.350;7.578;2022-09-17T03:56:08;99445.66;;;10.66;77.58
47883;BME280;37739;50.350;7.578;2022-09-17T03:58:36;99442.41;;;10.72;77.56
47883;BME280;37739;50.350;7.578;2022-09-17T04:01:03;99453.63;;;10.75;77.34
47883;BME280;37739;50.350;7.578;2022-09-17T04:03:31;99449.41;;;10.76;77.35
47883;BME280;37739;50.350;7.578;2022-09-17T04:06:01;99448.44;;;10.72;77.50
47883;BME280;37739;50.350;7.578;2022-09-17T04:08:26;99449.25;;;10.71;77.16
47883;BME280;37739;50.350;7.578;2022-09-17T04:10:55;99451.88;;;10.73;77.10
47883;BME280;37739;50.350;7.578;2022-09-17T04:13:20;99461.22;;;10.71;77.63
47883;BME280;37739;50.350;7.578;2022-09-17T04:15:48;99457.06;;;10.74;77.34
47883;BME280;37739;50.350;7.578;2022-09-17T04:18:16;99465.66;;;10.76;77.60
47883;BME280;37739;50.350;7.578;2022-09-17T04:20:43;99461.16;;;10.69;77.48
47883;BME280;37739;50.350;7.578;2022-09-17T04:23:13;99456.25;;;10.77;77.65
47883;BME280;37739;50.350;7.578;2022-09-17T04:25:39;99458.28;;;10.87;77.12
47883;BME280;37739;50.350;7.578;2022-09-17T04:28:05;99452.31;;;10.88;77.80
47883;BME280;37739;50.350;7.578;2022-09-17T04:30:33;99464.88;;;10.79;78.65
47883;BME280;37739;50.350;7.578;2022-09-17T04:33:01;99464.63;;;10.71;78.90
47883;BME280;37739;50.350;7.578;2022-09-17T04:35:26;99466.91;;;10.62;80.14
47883;BME280;37739;50.350;7.578;2022-09-17T04:37:56;99467.81;;;10.64;80.05
47883;BME280;37739;50.350;7.578;2022-09-17T04:40:25;99471.31;;;10.66;80.10
47883;BME280;37739;50.350;7.578;2022-09-17T04:42:54;99473.06;;;10.67;79.73
47883;BME280;37739;50.350;7.578;2022-09-17T04:45:20;99474.53;;;10.59;79.82
47883;BME280;37739;50.350;7.578;2022-09-17T04:47:45;99480.38;;;10.55;80.54
47883;BME280;37739;50.350;7.578;2022-09-17T04:50:10;99480.41;;;10.56;80.57
47883;BME280;37739;50.350;7.578;2022-09-17T04:52:36;99485.47;;;10.53;80.71
47883;BME280;37739;50.350;7.578;2022-09-17T04:55:01;99482.53;;;10.68;80.67
47883;BME280;37739;50.350;7.578;2022-09-17T04:57:29;99480.09;;;10.73;79.89
47883;BME280;37739;50.350;7.578;2022-09-17T04:59:54;99478.94;;;10.63;80.66
47883;BME280;37739;50.350;7.578;2022-09-17T05:02:22;99484.13;;;10.65;80.68
47883;BME280;37739;50.350;7.578;2022-09-17T05:04:49;99477.09;;;10.59;80.88
47883;BME280;37739;50.350;7.578;2022-09-17T05:07:17;99480.53;;;10.59;80.40
47883;BME280;37739;50.350;7.578;2022-09-17T05:09:42;99477.97;;;10.59;80.26
47883;BME280;37739;50.350;7.578;2022-09-17T05:12:08;99481.50;;;10.63;80.59
47883;BME280;37739;50.350;7.578;2022-09-17T05:14:33;99485.72;;;10.61;80.22
47883;BME280;37739;50.350;7.578;2022-09-17T05:17:01;99483.91;;;10.58;80.28
47883;BME280;37739;50.350;7.578;2022-09-17T05:19:28;99495.25;;;10.65;80.29
47883;BME280;37739;50.350;7.578;2022-09-17T05:21:54;99500.47;;;10.68;80.11
47883;BME280;37739;50.350;7.578;2022-09-17T05:24:20;99497.91;;;10.68;80.25
47883;BME280;37739;50.350;7.578;2022-09-17T05:26:50;99497.19;;;10.74;79.73
47883;BME280;37739;50.350;7.578;2022-09-17T05:29:15;99502.63;;;10.83;79.18
47883;BME280;37739;50.350;7.578;2022-09-17T05:31:40;99501.81;;;10.84;79.11
47883;BME280;37739;50.350;7.578;2022-09-17T05:34:06;99509.53;;;10.84;79.06
47883;BME280;37739;50.350;7.578;2022-09-17T05:36:31;99509.03;;;10.69;79.46
47883;BME280;37739;50.350;7.578;2022-09-17T05:38:59;99510.63;;;10.65;79.68
47883;BME280;37739;50.350;7.578;2022-09-17T05:41:26;99522.72;;;10.69;79.70
47883;BME280;37739;50.350;7.578;2022-09-17T05:43:54;99520.09;;;10.68;79.68
47883;BME280;37739;50.350;7.578;2022-09-17T05:46:21;99514.31;;;10.73;79.28
47883;BME280;37739;50.350;7.578;2022-09-17T05:48:47;99517.97;;;10.81;79.46
47883;BME280;37739;50.350;7.578;2022-09-17T05:51:14;99518.88;;;10.82;79.20
47883;BME280;37739;50.350;7.578;2022-09-17T05:53:39;99515.94;;;10.71;79.03
47883;BME280;37739;50.350;7.578;2022-09-17T05:56:05;99515.91;;;10.70;79.58
47883;BME280;37739;50.350;7.578;2022-09-17T05:58:35;99528.22;;;10.80;79.26
47883;BME280;37739;50.350;7.578;2022-09-17T06:01:00;99524.75;;;10.79;79.34
47883;BME280;37739;50.350;7.578;2022-09-17T06:03:28;99528.34;;;10.85;78.77
47883;BME280;37739;50.350;7.578;2022-09-17T06:05:55;99537.03;;;10.88;79.00
47883;BME280;37739;50.350;7.578;2022-09-17T06:08:22;99532.50;;;10.81;79.04
47883;BME280;37739;50.350;7.578;2022-09-17T06:10:48;99529.06;;;10.80;78.80
47883;BME280;37739;50.350;7.578;2022-09-17T06:13:15;99533.59;;;10.89;79.00
47883;BME280;37739;50.350;7.578;2022-09-17T06:15:40;99533.34;;;10.80;78.87
47883;BME280;37739;50.350;7.578;2022-09-17T06:18:05;99546.19;;;10.80;79.60
47883;BME280;37739;50.350;7.578;2022-09-17T06:20:31;99550.81;;;10.92;78.99
47883;BME280;37739;50.350;7.578;2022-09-17T06:22:57;99540.41;;;10.87;78.72
47883;BME280;37739;50.350;7.578;2022-09-17T06:25:23;99547.16;;;10.84;78.85
47883;BME280;37739;50.350;7.578;2022-09-17T06:27:51;99555.09;;;10.91;78.83
47883;BME280;37739;50.350;7.578;2022-09-17T06:30:16;99543.84;;;10.88;78.87
47883;BME280;37739;50.350;7.578;2022-09-17T06:32:44;99549.06;;;10.91;78.76
47883;BME280;37739;50.350;7.578;2022-09-17T06:35:10;99553.56;;;10.98;78.19
47883;BME280;37739;50.350;7.578;2022-09-17T06:37:35;99551.06;;;10.99;78.63
47883;BME280;37739;50.350;7.578;2022-09-17T06:40:04;99552.91;;;11.04;78.43
47883;BME280;37739;50.350;7.578;2022-09-17T06:42:35;99552.06;;;11.05;78.11
47883;BME280;37739;50.350;7.578;2022-09-17T06:45:03;99553.75;;;11.04;77.99
47883;BME280;37739;50.350;7.578;2022-09-17T06:47:31;99556.19;;;10.99;78.23
47883;BME280;37739;50.350;7.578;2022-09-17T06:49:56;99555.84;;;11.16;77.87
47883;BME280;37739;50.350;7.578;2022-09-17T06:52:24;99564.69;;;11.26;77.47
47883;BME280;37739;50.350;7.578;2022-09-17T06:54:49;99555.59;;;11.37;77.09
47883;BME280;37739;50.350;7.578;2022-09-17T06:57:14;99559.16;;;11.40;76.85
47883;BME280;37739;50.350;7.578;2022-09-17T06:59:39;99553.97;;;11.39;76.82
47883;BME280;37739;50.350;7.578;2022-09-17T07:02:08;99547.97;;;11.38;76.74
47883;BME280;37739;50.350;7.578;2022-09-17T07:04:33;99558.06;;;11.32;76.56
47883;BME280;37739;50.350;7.578;2022-09-17T07:06:58;99562.03;;;11.23;76.67
47883;BME280;37739;50.350;7.578;2022-09-17T07:09:26;99560.00;;;11.12;76.66
47883;BME280;37739;50.350;7.578;2022-09-17T07:11:51;99560.28;;;11.22;76.79
47883;BME280;37739;50.350;7.578;2022-09-17T07:14:17;99553.78;;;11.33;76.30
47883;BME280;37739;50.350;7.578;2022-09-17T07:16:43;99559.16;;;11.40;76.46
47883;BME280;37739;50.350;7.578;2022-09-17T07:19:08;99552.34;;;11.43;76.22
47883;BME280;37739;50.350;7.578;2022-09-17T07:21:34;99560.16;;;11.46;75.75
47883;BME280;37739;50.350;7.578;2022-09-17T07:23:59;99553.31;;;11.46;75.72
47883;BME280;37739;50.350;7.578;2022-09-17T07:26:27;99563.00;;;11.55;75.28
47883;BME280;37739;50.350;7.578;2022-09-17T07:28:55;99552.84;;;11.59;74.92
47883;BME280;37739;50.350;7.578;2022-09-17T07:31:20;99546.38;;;11.72;73.49
47883;BME280;37739;50.350;7.578;2022-09-17T07:33:45;99548.47;;;11.87;72.85
47883;BME280;37739;50.350;7.578;2022-09-17T07:36:12;99558.06;;;11.91;72.82
47883;BME280;37739;50.350;7.578;2022-09-17T07:38:39;99553.16;;;11.99;72.24
47883;BME280;37739;50.350;7.578;2022-09-17T07:41:10;99560.97;;;12.04;71.40
47883;BME280;37739;50.350;7.578;2022-09-17T07:43:39;99556.41;;;11.93;71.63
47883;BME280;37739;50.350;7.578;2022-09-17T07:46:06;99556.13;;;11.84;71.17
47883;BME280;37739;50.350;7.578;2022-09-17T07:48:32;99548.03;;;12.01;71.59
47883;BME280;37739;50.350;7.578;2022-09-17T07:51:00;99552.59;;;12.11;71.09
47883;BME280;37739;50.350;7.578;2022-09-17T07:53:26;99556.16;;;12.16;70.60
47883;BME280;37739;50.350;7.578;2022-09-17T07:55:52;99541.56;;;12.15;69.59
47883;BME280;37739;50.350;7.578;2022-09-17T07:58:18;99553.56;;;12.48;69.41
47883;BME280;37739;50.350;7.578;2022-09-17T08:00:48;99542.25;;;12.77;68.21
47883;BME280;37739;50.350;7.578;2022-09-17T08:03:16;99553.81;;;12.95;65.81
47883;BME280;37739;50.350;7.578;2022-09-17T08:05:43;99543.66;;;13.00;66.23
47883;BME280;37739;50.350;7.578;2022-09-17T08:08:09;99541.47;;;12.80;67.09
47883;BME280;37739;50.350;7.578;2022-09-17T08:10:36;99546.78;;;12.86;67.54
47883;BME280;37739;50.350;7.578;2022-09-17T08:13:02;99550.06;;;12.81;67.25
47883;BME280;37739;50.350;7.578;2022-09-17T08:15:27;99536.34;;;12.82;67.86
47883;BME280;37739;50.350;7.578;2022-09-17T08:17:55;99550.22;;;12.87;67.73
47883;BME280;37739;50.350;7.578;2022-09-17T08:20:20;99547.50;;;12.81;67.51
47883;BME280;37739;50.350;7.578;2022-09-17T08:22:57;99551.59;;;12.72;66.91
47883;BME280;37739;50.350;7.578;2022-09-17T08:25:22;99554.22;;;12.75;66.97
47883;BME280;37739;50.350;7.578;2022-09-17T08:27:54;99552.00;;;12.91;67.13
47883;BME280;37739;50.350;7.578;2022-09-17T08:30:20;99553.81;;;12.93;66.89
47883;BME280;37739;50.350;7.578;2022-09-17T08:32:48;99565.84;;;12.94;65.61
47883;BME280;37739;50.350;7.578;2022-09-17T08:35:13;99563.41;;;13.01;64.87
47883;BME280;37739;50.350;7.578;2022-09-17T08:37:41;99566.69;;;12.95;64.29
47883;BME280;37739;50.350;7.578;2022-09-17T08:40:12;99569.66;;;12.75;63.98
47883;BME280;37739;50.350;7.578;2022-09-17T08:45:19;99578.97;;;12.69;64.41
47883;BME280;37739;50.350;7.578;2022-09-17T08:47:48;99577.75;;;12.56;64.99
47883;BME280;37739;50.350;7.578;2022-09-17T08:50:34;99578.66;;;12.58;65.06
47883;BME280;37739;50.350;7.578;2022-09-17T08:53:25;99582.19;;;12.62;64.84
47883;BME280;37739;50.350;7.578;2022-09-17T08:56:17;99581.91;;;12.51;64.74
47883;BME280;37739;50.350;7.578;2022-09-17T09:01:55;99581.84;;;12.48;65.78
47883;BME280;37739;50.350;7.578;2022-09-17T09:07:05;99584.81;;;12.63;65.27
47883;BME280;37739;50.350;7.578;2022-09-17T09:09:47;99579.88;;;12.71;64.27
47883;BME280;37739;50.350;7.578;2022-09-17T09:12:21;99591.94;;;12.73;64.72
47883;BME280;37739;50.350;7.578;2022-09-17T09:14:55;99590.44;;;12.83;64.49
47883;BME280;37739;50.350;7.578;2022-09-17T09:17:27;99580.91;;;12.79;64.35
47883;BME280;37739;50.350;7.578;2022-09-17T09:19:53;99589.88;;;12.95;63.88
47883;BME280;37739;50.350;7.578;2022-09-17T09:22:30;99588.31;;;13.02;63.41
47883;BME280;37739;50.350;7.578;2022-09-17T09:25:20;99589.78;;;12.90;62.68
47883;BME280;37739;50.350;7.578;2022-09-17T09:28:09;99595.78;;;12.91;62.82
47883;BME280;37739;50.350;7.578;2022-09-17T09:33:28;99591.59;;;13.31;62.15
47883;BME280;37739;50.350;7.578;2022-09-17T09:35:54;99592.31;;;13.25;62.74
47883;BME280;37739;50.350;7.578;2022-09-17T09:38:34;99587.34;;;13.72;61.30
47883;BME280;37739;50.350;7.578;2022-09-17T09:43:38;99585.69;;;14.20;58.27
47883;BME280;37739;50.350;7.578;2022-09-17T09:46:43;99587.28;;;14.12;58.12
47883;BME280;37739;50.350;7.578;2022-09-17T09:54:49;99574.31;;;14.56;56.63
47883;BME280;37739;50.350;7.578;2022-09-17T09:57:23;99566.03;;;14.72;55.11
47883;BME280;37739;50.350;7.578;2022-09-17T10:00:29;99563.97;;;15.08;52.94
47883;BME280;37739;50.350;7.578;2022-09-17T10:05:28;99565.66;;;15.67;51.14
47883;BME280;37739;50.350;7.578;2022-09-17T10:07:56;99572.75;;;15.80;50.53
47883;BME280;37739;50.350;7.578;2022-09-17T10:10:24;99570.84;;;15.70;50.03
47883;BME280;37739;50.350;7.578;2022-09-17T10:13:04;99572.09;;;15.98;49.82
47883;BME280;37739;50.350;7.578;2022-09-17T10:15:29;99563.69;;;16.18;51.48
47883;BME280;37739;50.350;7.578;2022-09-17T10:18:11;99568.50;;;15.87;48.98
47883;BME280;37739;50.350;7.578;2022-09-17T10:20:54;99571.81;;;15.75;51.17
47883;BME280;37739;50.350;7.578;2022-09-17T10:23:21;99578.28;;;15.44;53.06
47883;BME280;37739;50.350;7.578;2022-09-17T10:25:47;99574.19;;;15.60;52.75
47883;BME280;37739;50.350;7.578;2022-09-17T10:28:43;99578.09;;;15.31;52.19
47883;BME280;37739;50.350;7.578;2022-09-17T10:31:11;99580.41;;;15.73;52.79
47883;BME280;37739;50.350;7.578;2022-09-17T10:36:34;99570.84;;;16.42;48.96
47883;BME280;37739;50.350;7.578;2022-09-17T10:42:25;99576.47;;;16.93;50.02
47883;BME280;37739;50.350;7.578;2022-09-17T10:47:24;99567.34;;;16.38;48.29
47883;BME280;37739;50.350;7.578;2022-09-17T10:50:01;99567.84;;;16.03;48.67
47883;BME280;37739;50.350;7.578;2022-09-17T10:52:31;99566.13;;;16.04;49.73
47883;BME280;37739;50.350;7.578;2022-09-17T11:04:14;99554.91;;;16.97;47.10
47883;BME280;37739;50.350;7.578;2022-09-17T11:07:01;99548.22;;;16.25;47.37
47883;BME280;37739;50.350;7.578;2022-09-17T11:12:38;99549.06;;;15.49;48.46
47883;BME280;37739;50.350;7.578;2022-09-17T11:29:08;99519.41;;;16.85;45.67
47883;BME280;37739;50.350;7.578;2022-09-17T11:31:53;99520.41;;;17.07;45.16
47883;BME280;37739;50.350;7.578;2022-09-17T11:34:35;99524.63;;;16.88;43.70
47883;BME280;37739;50.350;7.578;2022-09-17T11:39:42;99518.91;;;17.40;44.83
47883;BME280;37739;50.350;7.578;2022-09-17T11:42:18;99522.84;;;16.84;46.35
47883;BME280;37739;50.350;7.578;2022-09-17T11:44:53;99526.22;;;16.75;46.88
47883;BME280;37739;50.350;7.578;2022-09-17T11:47:26;99526.97;;;16.60;46.57
47883;BME280;37739;50.350;7.578;2022-09-17T11:50:02;99520.13;;;16.68;45.71
47883;BME280;37739;50.350;7.578;2022-09-17T11:55:26;99547.25;;;15.42;51.04
47883;BME280;37739;50.350;7.578;2022-09-17T11:57:58;99571.31;;;14.82;55.98
47883;BME280;37739;50.350;7.578;2022-09-17T12:00:28;99581.78;;;13.95;63.24
47883;BME280;37739;50.350;7.578;2022-09-17T12:03:20;99572.97;;;13.84;65.93
47883;BME280;37739;50.350;7.578;2022-09-17T12:06:00;99554.56;;;14.09;66.10
47883;BME280;37739;50.350;7.578;2022-09-17T12:08:43;99549.69;;;14.25;65.80
47883;BME280;37739;50.350;7.578;2022-09-17T12:13:48;99546.16;;;15.25;63.38
47883;BME280;37739;50.350;7.578;2022-09-17T12:16:24;99546.41;;;15.45;62.93
47883;BME280;37739;50.350;7.578;2022-09-17T12:19:26;99543.22;;;15.63;61.32
47883;BME280;37739;50.350;7.578;2022-09-17T12:21:59;99544.91;;;15.61;60.59
47883;BME280;37739;50.350;7.578;2022-09-17T12:24:26;99543.75;;;15.39;59.77
47883;BME280;37739;50.350;7.578;2022-09-17T12:41:10;99526.91;;;15.68;59.78
47883;BME280;37739;50.350;7.578;2022-09-17T12:43:56;99520.47;;;16.10;58.31
47883;BME280;37739;50.350;7.578;2022-09-17T12:47:01;99514.72;;;16.41;57.15
47883;BME280;37739;50.350;7.578;2022-09-17T12:57:48;99493.16;;;16.42;55.31
47883;BME280;37739;50.350;7.578;2022-09-17T13:00:20;99489.00;;;16.62;54.34
47883;BME280;37739;50.350;7.578;2022-09-17T13:11:22;99495.16;;;15.79;54.32
47883;BME280;37739;50.350;7.578;2022-09-17T13:22:15;99515.78;;;14.55;54.70
47883;BME280;37739;50.350;7.578;2022-09-17T13:24:41;99513.97;;;14.51;54.38
47883;BME280;37739;50.350;7.578;2022-09-17T13:27:23;99519.13;;;14.48;55.46
47883;BME280;37739;50.350;7.578;2022-09-17T13:37:37;99536.00;;;14.29;58.72
47883;BME280;37739;50.350;7.578;2022-09-17T13:40:30;99538.53;;;14.27;60.08
47883;BME280;37739;50.350;7.578;2022-09-17T13:43:07;99538.22;;;14.09;60.68
47883;BME280;37739;50.350;7.578;2022-09-17T13:48:30;99543.09;;;13.95;61.89
47883;BME280;37739;50.350;7.578;2022-09-17T13:50:56;99535.34;;;13.95;63.05
47883;BME280;37739;50.350;7.578;2022-09-17T13:53:54;99536.06;;;13.86;62.70
47883;BME280;37739;50.350;7.578;2022-09-17T13:56:32;99542.84;;;14.77;61.46
47883;BME280;37739;50.350;7.578;2022-09-17T13:59:06;99537.44;;;15.82;59.00
47883;BME280;37739;50.350;7.578;2022-09-17T14:09:57;99524.66;;;16.93;51.39
47883;BME280;37739;50.350;7.578;2022-09-17T14:18:37;99518.97;;;16.33;54.18
47883;BME280;37739;50.350;7.578;2022-09-17T14:21:13;99522.81;;;15.86;54.31
47883;BME280;37739;50.350;7.578;2022-09-17T14:23:44;99525.69;;;15.43;54.15
47883;BME280;37739;50.350;7.578;2022-09-17T14:26:16;99521.91;;;15.18;55.33
47883;BME280;37739;50.350;7.578;2022-09-17T14:28:59;99523.34;;;14.96;56.12
47883;BME280;37739;50.350;7.578;2022-09-17T14:31:33;99527.78;;;15.06;56.97
47883;BME280;37739;50.350;7.578;2022-09-17T14:34:21;99529.44;;;15.03;57.45
47883;BME280;37739;50.350;7.578;2022-09-17T14:36:51;99536.13;;;14.88;56.79
47883;BME280;37739;50.350;7.578;2022-09-17T14:39:23;99536.16;;;14.90;57.71
47883;BME280;37739;50.350;7.578;2022-09-17T14:41:51;99532.16;;;15.09;57.08
47883;BME280;37739;50.350;7.578;2022-09-17T14:44:20;99531.69;;;14.80;56.72
47883;BME280;37739;50.350;7.578;2022-09-17T14:46:54;99537.94;;;14.94;56.91
47883;BME280;37739;50.350;7.578;2022-09-17T14:49:26;99543.06;;;14.91;57.81
47883;BME280;37739;50.350;7.578;2022-09-17T14:51:53;99535.50;;;15.03;56.94
47883;BME280;37739;50.350;7.578;2022-09-17T14:54:26;99538.72;;;14.88;57.19
47883;BME280;37739;50.350;7.578;2022-09-17T14:57:09;99541.25;;;14.85;57.07
47883;BME280;37739;50.350;7.578;2022-09-17T14:59:53;99540.78;;;15.11;55.32
47883;BME280;37739;50.350;7.578;2022-09-17T15:02:55;99527.47;;;16.22;52.92
47883;BME280;37739;50.350;7.578;2022-09-17T15:05:30;99541.72;;;16.67;49.95
47883;BME280;37739;50.350;7.578;2022-09-17T15:10:43;99546.72;;;16.46;50.49
47883;BME280;37739;50.350;7.578;2022-09-17T15:13:18;99541.16;;;16.07;50.62
47883;BME280;37739;50.350;7.578;2022-09-17T15:15:53;99542.41;;;16.51;49.90
47883;BME280;37739;50.350;7.578;2022-09-17T15:18:20;99533.66;;;16.35;49.13
47883;BME280;37739;50.350;7.578;2022-09-17T15:20:49;99542.38;;;16.46;50.15
47883;BME280;37739;50.350;7.578;2022-09-17T15:23:21;99541.50;;;16.43;49.32
47883;BME280;37739;50.350;7.578;2022-09-17T15:25:50;99531.66;;;16.08;50.74
47883;BME280;37739;50.350;7.578;2022-09-17T15:28:28;99534.34;;;16.17;51.20
47883;BME280;37739;50.350;7.578;2022-09-17T15:30:55;99537.34;;;15.75;52.08
47883;BME280;37739;50.350;7.578;2022-09-17T15:33:24;99542.13;;;15.45;52.79
47883;BME280;37739;50.350;7.578;2022-09-17T15:38:47;99531.22;;;15.05;53.87
47883;BME280;37739;50.350;7.578;2022-09-17T15:41:36;99532.38;;;15.26;54.25
47883;BME280;37739;50.350;7.578;2022-09-17T15:44:14;99525.81;;;15.49;52.86
47883;BME280;37739;50.350;7.578;2022-09-17T15:46:41;99523.91;;;15.36;54.08
47883;BME280;37739;50.350;7.578;2022-09-17T15:49:32;99522.31;;;15.46;53.59
47883;BME280;37739;50.350;7.578;2022-09-17T15:52:27;99531.50;;;15.25;54.79
47883;BME280;37739;50.350;7.578;2022-09-17T15:54:59;99531.47;;;15.24;55.77
47883;BME280;37739;50.350;7.578;2022-09-17T15:57:26;99529.00;;;15.30;54.35
47883;BME280;37739;50.350;7.578;2022-09-17T15:59:57;99525.72;;;15.42;54.67
47883;BME280;37739;50.350;7.578;2022-09-17T16:02:30;99523.44;;;15.68;54.11
47883;BME280;37739;50.350;7.578;2022-09-17T16:07:46;99543.16;;;14.96;55.70
47883;BME280;37739;50.350;7.578;2022-09-17T16:10:13;99545.81;;;15.02;56.04
47883;BME280;37739;50.350;7.578;2022-09-17T16:12:40;99539.81;;;15.04;55.11
47883;BME280;37739;50.350;7.578;2022-09-17T16:15:07;99531.09;;;14.96;54.15
47883;BME280;37739;50.350;7.578;2022-09-17T16:22:35;99551.63;;;14.38;56.62